sensor_id;sensor_type;location;lat;lon;timestamp;temperature;humidity
19342;DHT22;9807;48.258;12.690;2023-02-22T00:01:16;9.60;99.90
19342;DHT22;9807;48.258;12.690;2023-02-22T00:04:02;9.60;99.90
19342;DHT22;9807;48.258;12.690;2023-02-22T00:06:28;9.60;99.90
19342;DHT22;9807;48.258;12.690;2023-02-22T00:08:56;9.30;99.90
19342;DHT22;9807;48.258;12.690;2023-02-22T00:11:22;8.90;99.90
19342;DHT22;9807;48.258;12.690;2023-02-22T00:13:48;8.90;99.90
19342;DHT22;9807;48.258;12.690;2023-02-22T00:16:20;9.00;99.90
19342;DHT22;9807;48.258;12.690;2023-02-22T00:18:52;9.10;99.90
19342;DHT22;9807;48.258;12.690;2023-02-22T00:21:18;9.20;99.90
19342;DHT22;9807;48.258;12.690;2023-02-22T00:23:45;9.30;99.90
19342;DHT22;9807;48.258;12.690;2023-02-22T00:26:16;9.30;99.90
19342;DHT22;9807;48.258;12.690;2023-02-22T00:28:50;9.40;99.90
19342;DHT22;9807;48.258;12.690;2023-02-22T00:31:17;9.30;99.90
19342;DHT22;9807;48.258;12.690;2023-02-22T00:33:43;9.30;99.90
19342;DHT22;9807;48.258;12.690;2023-02-22T00:36:11;9.30;99.90
19342;DHT22;9807;48.258;12.690;2023-02-22T00:38:37;9.30;99.90
19342;DHT22;9807;48.258;12.690;2023-02-22T00:41:03;9.30;99.90
19342;DHT22;9807;48.258;12.690;2023-02-22T00:43:29;9.30;99.90
19342;DHT22;9807;48.258;12.690;2023-02-22T00:45:54;9.30;99.90
19342;DHT22;9807;48.258;12.690;2023-02-22T00:48:21;9.30;99.90
19342;DHT22;9807;48.258;12.690;2023-02-22T00:50:47;9.30;99.90
19342;DHT22;9807;48.258;12.690;2023-02-22T00:53:14;9.20;99.90
19342;DHT22;9807;48.258;12.690;2023-02-22T00:55:39;9.20;99.90
19342;DHT22;9807;48.258;12.690;2023-02-22T00:58:06;9.20;99.90
19342;DHT22;9807;48.258;12.690;2023-02-22T01:00:39;9.20;99.90
19342;DHT22;9807;48.258;12.690;2023-02-22T01:03:07;9.00;99.90
19342;DHT22;9807;48.258;12.690;2023-02-22T01:05:33;8.80;99.90
19342;DHT22;9807;48.258;12.690;2023-02-22T01:08:01;9.00;99.90
19342;DHT22;9807;48.258;12.690;2023-02-22T01:10:29;8.90;99.90
19342;DHT22;9807;48.258;12.690;2023-02-22T01:12:56;9.00;99.90
19342;DHT22;9807;48.258;12.690;2023-02-22T01:15:26;9.10;99.90
19342;DHT22;9807;48.258;12.690;2023-02-22T01:17:53;9.10;99.90
19342;DHT22;9807;48.258;12.690;2023-02-22T01:20:20;9.10;99.90
19342;DHT22;9807;48.258;12.690;2023-02-22T01:22:48;9.20;99.90
19342;DHT22;9807;48.258;12.690;2023-02-22T01:25:17;9.20;99.90
19342;DHT22;9807;48.258;12.690;2023-02-22T01:27:43;9.20;99.90
19342;DHT22;9807;48.258;12.690;2023-02-22T01:30:11;9.20;99.90
19342;DHT22;9807;48.258;12.690;2023-02-22T01:32:39;9.20;99.90
19342;DHT22;9807;48.258;12.690;2023-02-22T01:35:09;9.20;99.90
19342;DHT22;9807;48.258;12.690;2023-02-22T01:37:35;9.20;99.90
19342;DHT22;9807;48.258;12.690;2023-02-22T01:40:03;9.20;99.90
19342;DHT22;9807;48.258;12.690;2023-02-22T01:42:31;9.10;99.90
19342;DHT22;9807;48.258;12.690;2023-02-22T01:48:05;9.10;99.90
19342;DHT22;9807;48.258;12.690;2023-02-22T01:50:36;9.00;99.90
19342;DHT22;9807;48.258;12.690;2023-02-22T01:53:04;9.00;99.90
19342;DHT22;9807;48.258;12.690;2023-02-22T01:55:33;8.90;99.90
19342;DHT22;9807;48.258;12.690;2023-02-22T01:57:59;8.80;99.90
19342;DHT22;9807;48.258;12.690;2023-02-22T02:00:26;8.50;99.90
19342;DHT22;9807;48.258;12.690;2023-02-22T02:02:58;7.90;99.90
19342;DHT22;9807;48.258;12.690;2023-02-22T02:05:25;7.40;99.90
19342;DHT22;9807;48.258;12.690;2023-02-22T02:07:52;7.50;99.90
19342;DHT22;9807;48.258;12.690;2023-02-22T02:10:24;7.70;99.90
19342;DHT22;9807;48.258;12.690;2023-02-22T02:12:52;7.90;99.90
19342;DHT22;9807;48.258;12.690;2023-02-22T02:15:23;8.30;99.90
19342;DHT22;9807;48.258;12.690;2023-02-22T02:17:51;8.40;99.90
19342;DHT22;9807;48.258;12.690;2023-02-22T02:34:06;8.80;99.90
19342;DHT22;9807;48.258;12.690;2023-02-22T02:36:47;8.80;99.90
19342;DHT22;9807;48.258;12.690;2023-02-22T02:41:52;8.80;99.90
19342;DHT22;9807;48.258;12.690;2023-02-22T02:44:35;8.80;99.90
19342;DHT22;9807;48.258;12.690;2023-02-22T02:47:09;8.80;99.90
19342;DHT22;9807;48.258;12.690;2023-02-22T02:49:47;8.80;99.90
19342;DHT22;9807;48.258;12.690;2023-02-22T02:52:17;8.80;99.90
19342;DHT22;9807;48.258;12.690;2023-02-22T02:54:45;8.80;99.90
19342;DHT22;9807;48.258;12.690;2023-02-22T02:57:11;8.80;99.90
19342;DHT22;9807;48.258;12.690;2023-02-22T02:59:37;8.80;99.90
19342;DHT22;9807;48.258;12.690;2023-02-22T03:05:21;8.80;99.90
19342;DHT22;9807;48.258;12.690;2023-02-22T03:19:11;8.70;99.90
19342;DHT22;9807;48.258;12.690;2023-02-22T03:24:38;8.70;99.90
19342;DHT22;9807;48.258;12.690;2023-02-22T03:27:27;8.70;99.90
19342;DHT22;9807;48.258;12.690;2023-02-22T03:29:58;8.70;99.90
19342;DHT22;9807;48.258;12.690;2023-02-22T03:32:29;8.70;99.90
19342;DHT22;9807;48.258;12.690;2023-02-22T03:35:01;8.70;99.90
19342;DHT22;9807;48.258;12.690;2023-02-22T03:37:31;8.70;99.90
19342;DHT22;9807;48.258;12.690;2023-02-22T03:39:59;8.70;99.90
19342;DHT22;9807;48.258;12.690;2023-02-22T03:42:32;8.70;99.90
19342;DHT22;9807;48.258;12.690;2023-02-22T03:45:01;8.70;99.90
19342;DHT22;9807;48.258;12.690;2023-02-22T03:47:34;8.70;99.90
19342;DHT22;9807;48.258;12.690;2023-02-22T03:50:11;8.60;99.90
19342;DHT22;9807;48.258;12.690;2023-02-22T03:52:40;8.60;99.90
19342;DHT22;9807;48.258;12.690;2023-02-22T03:55:09;8.60;99.90
19342;DHT22;9807;48.258;12.690;2023-02-22T03:57:41;8.60;99.90
19342;DHT22;9807;48.258;12.690;2023-02-22T04:00:13;8.70;99.90
19342;DHT22;9807;48.258;12.690;2023-02-22T04:02:40;8.70;99.90
19342;DHT22;9807;48.258;12.690;2023-02-22T04:05:06;8.60;99.90
19342;DHT22;9807;48.258;12.690;2023-02-22T04:07:32;8.60;99.90
19342;DHT22;9807;48.258;12.690;2023-02-22T04:09:57;8.60;99.90
19342;DHT22;9807;48.258;12.690;2023-02-22T04:12:23;8.60;99.90
19342;DHT22;9807;48.258;12.690;2023-02-22T04:14:49;8.60;99.90
19342;DHT22;9807;48.258;12.690;2023-02-22T04:17:15;8.60;99.90
19342;DHT22;9807;48.258;12.690;2023-02-22T04:19:40;8.60;99.90
19342;DHT22;9807;48.258;12.690;2023-02-22T04:22:08;8.60;99.90
19342;DHT22;9807;48.258;12.690;2023-02-22T04:24:33;8.50;99.90
19342;DHT22;9807;48.258;12.690;2023-02-22T04:26:59;8.40;99.90
19342;DHT22;9807;48.258;12.690;2023-02-22T04:29:25;8.40;99.90
19342;DHT22;9807;48.258;12.690;2023-02-22T04:31:50;8.20;99.90
19342;DHT22;9807;48.258;12.690;2023-02-22T04:34:16;8.20;99.90
19342;DHT22;9807;48.258;12.690;2023-02-22T04:36:42;8.10;99.90
19342;DHT22;9807;48.258;12.690;2023-02-22T04:39:09;8.00;99.90
19342;DHT22;9807;48.258;12.690;2023-02-22T04:41:37;8.00;99.90
19342;DHT22;9807;48.258;12.690;2023-02-22T04:44:03;7.90;99.90
19342;DHT22;9807;48.258;12.690;2023-02-22T04:46:29;7.60;99.90
19342;DHT22;9807;48.258;12.690;2023-02-22T04:48:55;6.70;99.90
19342;DHT22;9807;48.258;12.690;2023-02-22T04:51:22;6.30;99.90
19342;DHT22;9807;48.258;12.690;2023-02-22T04:53:48;6.40;99.90
19342;DHT22;9807;48.258;12.690;2023-02-22T04:56:16;6.50;99.90
19342;DHT22;9807;48.258;12.690;2023-02-22T04:58:42;6.60;99.90
19342;DHT22;9807;48.258;12.690;2023-02-22T05:01:08;6.90;99.90
19342;DHT22;9807;48.258;12.690;2023-02-22T05:03:36;7.30;99.90
19342;DHT22;9807;48.258;12.690;2023-02-22T05:06:03;7.50;99.90
19342;DHT22;9807;48.258;12.690;2023-02-22T05:08:28;7.70;99.90
19342;DHT22;9807;48.258;12.690;2023-02-22T05:10:54;7.70;99.90
19342;DHT22;9807;48.258;12.690;2023-02-22T05:13:20;7.70;99.90
19342;DHT22;9807;48.258;12.690;2023-02-22T05:15:46;7.80;99.90
19342;DHT22;9807;48.258;12.690;2023-02-22T05:18:13;7.70;99.90
19342;DHT22;9807;48.258;12.690;2023-02-22T05:20:38;7.80;99.90
19342;DHT22;9807;48.258;12.690;2023-02-22T05:23:04;7.80;99.90
19342;DHT22;9807;48.258;12.690;2023-02-22T05:25:30;7.90;99.90
19342;DHT22;9807;48.258;12.690;2023-02-22T05:28:10;7.90;99.90
19342;DHT22;9807;48.258;12.690;2023-02-22T05:30:37;8.00;99.90
19342;DHT22;9807;48.258;12.690;2023-02-22T05:33:07;8.00;99.90
19342;DHT22;9807;48.258;12.690;2023-02-22T05:35:33;8.10;99.90
19342;DHT22;9807;48.258;12.690;2023-02-22T05:37:58;8.10;99.90
19342;DHT22;9807;48.258;12.690;2023-02-22T05:40:27;8.20;99.90
19342;DHT22;9807;48.258;12.690;2023-02-22T05:42:53;8.10;99.90
19342;DHT22;9807;48.258;12.690;2023-02-22T05:45:21;8.10;99.90
19342;DHT22;9807;48.258;12.690;2023-02-22T05:47:47;8.20;99.90
19342;DHT22;9807;48.258;12.690;2023-02-22T05:50:13;8.20;99.90
19342;DHT22;9807;48.258;12.690;2023-02-22T05:52:39;8.20;99.90
19342;DHT22;9807;48.258;12.690;2023-02-22T05:55:06;8.20;99.90
19342;DHT22;9807;48.258;12.690;2023-02-22T05:57:32;8.10;99.90
19342;DHT22;9807;48.258;12.690;2023-02-22T05:59:58;8.10;99.90
19342;DHT22;9807;48.258;12.690;2023-02-22T06:02:24;8.10;99.90
19342;DHT22;9807;48.258;12.690;2023-02-22T06:04:50;7.80;99.90
19342;DHT22;9807;48.258;12.690;2023-02-22T06:07:15;7.60;99.90
19342;DHT22;9807;48.258;12.690;2023-02-22T06:09:41;6.70;99.90
19342;DHT22;9807;48.258;12.690;2023-02-22T06:12:08;5.80;99.90
19342;DHT22;9807;48.258;12.690;2023-02-22T06:14:35;5.10;99.90
19342;DHT22;9807;48.258;12.690;2023-02-22T06:17:02;4.40;99.90
19342;DHT22;9807;48.258;12.690;2023-02-22T06:19:29;4.00;99.90
19342;DHT22;9807;48.258;12.690;2023-02-22T06:21:56;4.10;99.90
19342;DHT22;9807;48.258;12.690;2023-02-22T06:24:24;4.60;99.90
19342;DHT22;9807;48.258;12.690;2023-02-22T06:26:54;5.30;99.90
19342;DHT22;9807;48.258;12.690;2023-02-22T06:29:22;6.00;99.90
19342;DHT22;9807;48.258;12.690;2023-02-22T06:31:48;6.50;99.90
19342;DHT22;9807;48.258;12.690;2023-02-22T06:34:14;6.90;99.90
19342;DHT22;9807;48.258;12.690;2023-02-22T06:36:40;7.10;99.90
19342;DHT22;9807;48.258;12.690;2023-02-22T06:39:09;7.30;99.90
19342;DHT22;9807;48.258;12.690;2023-02-22T06:41:45;7.50;99.90
19342;DHT22;9807;48.258;12.690;2023-02-22T06:44:12;7.60;99.90
19342;DHT22;9807;48.258;12.690;2023-02-22T06:46:38;7.70;99.90
19342;DHT22;9807;48.258;12.690;2023-02-22T06:49:04;7.60;99.90
19342;DHT22;9807;48.258;12.690;2023-02-22T06:51:35;7.30;99.90
19342;DHT22;9807;48.258;12.690;2023-02-22T06:54:01;6.70;99.90
19342;DHT22;9807;48.258;12.690;2023-02-22T06:56:27;6.60;99.90
19342;DHT22;9807;48.258;12.690;2023-02-22T06:58:53;6.50;99.90
19342;DHT22;9807;48.258;12.690;2023-02-22T07:01:18;6.50;99.90
19342;DHT22;9807;48.258;12.690;2023-02-22T07:03:44;6.70;99.90
19342;DHT22;9807;48.258;12.690;2023-02-22T07:06:10;7.00;99.90
19342;DHT22;9807;48.258;12.690;2023-02-22T07:08:51;7.30;99.90
19342;DHT22;9807;48.258;12.690;2023-02-22T07:11:19;7.60;99.90
19342;DHT22;9807;48.258;12.690;2023-02-22T07:13:44;7.70;99.90
19342;DHT22;9807;48.258;12.690;2023-02-22T07:16:10;7.80;99.90
19342;DHT22;9807;48.258;12.690;2023-02-22T07:18:36;8.00;99.90
19342;DHT22;9807;48.258;12.690;2023-02-22T07:21:03;8.10;99.90
19342;DHT22;9807;48.258;12.690;2023-02-22T07:23:29;8.10;99.90
19342;DHT22;9807;48.258;12.690;2023-02-22T07:25:55;8.30;99.90
19342;DHT22;9807;48.258;12.690;2023-02-22T07:28:21;8.30;99.90
19342;DHT22;9807;48.258;12.690;2023-02-22T07:30:46;8.40;99.90
19342;DHT22;9807;48.258;12.690;2023-02-22T07:33:12;8.40;99.90
19342;DHT22;9807;48.258;12.690;2023-02-22T07:35:43;8.40;99.90
19342;DHT22;9807;48.258;12.690;2023-02-22T07:38:11;8.50;99.90
19342;DHT22;9807;48.258;12.690;2023-02-22T07:40:38;8.60;99.90
19342;DHT22;9807;48.258;12.690;2023-02-22T07:43:19;8.60;99.90
19342;DHT22;9807;48.258;12.690;2023-02-22T07:45:46;8.30;99.90
19342;DHT22;9807;48.258;12.690;2023-02-22T07:48:13;7.80;99.90
19342;DHT22;9807;48.258;12.690;2023-02-22T07:50:39;7.10;99.90
19342;DHT22;9807;48.258;12.690;2023-02-22T07:53:07;7.00;99.90
19342;DHT22;9807;48.258;12.690;2023-02-22T07:55:35;6.90;99.90
19342;DHT22;9807;48.258;12.690;2023-02-22T07:58:04;7.00;99.90
19342;DHT22;9807;48.258;12.690;2023-02-22T08:00:32;7.20;99.90
19342;DHT22;9807;48.258;12.690;2023-02-22T08:03:03;7.60;99.90
19342;DHT22;9807;48.258;12.690;2023-02-22T08:05:30;8.00;99.90
19342;DHT22;9807;48.258;12.690;2023-02-22T08:07:56;8.40;99.90
19342;DHT22;9807;48.258;12.690;2023-02-22T08:10:23;8.60;99.90
19342;DHT22;9807;48.258;12.690;2023-02-22T08:12:50;8.90;99.90
19342;DHT22;9807;48.258;12.690;2023-02-22T08:15:27;9.00;99.90
19342;DHT22;9807;48.258;12.690;2023-02-22T08:17:54;9.10;99.90
19342;DHT22;9807;48.258;12.690;2023-02-22T08:20:24;9.20;99.90
19342;DHT22;9807;48.258;12.690;2023-02-22T08:22:50;9.20;99.90
19342;DHT22;9807;48.258;12.690;2023-02-22T08:25:17;9.20;99.90
19342;DHT22;9807;48.258;12.690;2023-02-22T08:27:45;9.30;99.90
19342;DHT22;9807;48.258;12.690;2023-02-22T08:30:19;9.40;99.90
19342;DHT22;9807;48.258;12.690;2023-02-22T08:32:48;9.50;99.90
19342;DHT22;9807;48.258;12.690;2023-02-22T08:35:21;9.50;99.90
19342;DHT22;9807;48.258;12.690;2023-02-22T08:37:53;9.50;99.90
19342;DHT22;9807;48.258;12.690;2023-02-22T08:40:22;9.60;99.90
19342;DHT22;9807;48.258;12.690;2023-02-22T08:42:48;9.80;99.90
19342;DHT22;9807;48.258;12.690;2023-02-22T08:45:15;9.80;99.90
19342;DHT22;9807;48.258;12.690;2023-02-22T08:47:41;9.90;99.90
19342;DHT22;9807;48.258;12.690;2023-02-22T08:50:09;9.70;99.90
19342;DHT22;9807;48.258;12.690;2023-02-22T08:52:37;9.80;99.90
19342;DHT22;9807;48.258;12.690;2023-02-22T08:55:03;9.70;99.90
19342;DHT22;9807;48.258;12.690;2023-02-22T08:57:29;9.60;99.90
19342;DHT22;9807;48.258;12.690;2023-02-22T08:59:56;9.70;99.90
19342;DHT22;9807;48.258;12.690;2023-02-22T09:02:21;9.70;99.90
19342;DHT22;9807;48.258;12.690;2023-02-22T09:04:48;9.60;99.90
19342;DHT22;9807;48.258;12.690;2023-02-22T09:07:14;9.70;99.90
19342;DHT22;9807;48.258;12.690;2023-02-22T09:09:42;9.80;99.90
19342;DHT22;9807;48.258;12.690;2023-02-22T09:12:08;9.80;99.90
19342;DHT22;9807;48.258;12.690;2023-02-22T09:14:36;9.80;99.90
19342;DHT22;9807;48.258;12.690;2023-02-22T09:17:01;9.90;99.90
19342;DHT22;9807;48.258;12.690;2023-02-22T09:19:27;10.00;99.90
19342;DHT22;9807;48.258;12.690;2023-02-22T09:21:54;10.10;99.90
19342;DHT22;9807;48.258;12.690;2023-02-22T09:24:20;10.30;99.90
19342;DHT22;9807;48.258;12.690;2023-02-22T09:26:46;10.10;99.90
19342;DHT22;9807;48.258;12.690;2023-02-22T09:29:12;9.90;99.90
19342;DHT22;9807;48.258;12.690;2023-02-22T09:31:39;10.10;99.90
19342;DHT22;9807;48.258;12.690;2023-02-22T09:34:06;10.40;99.90
19342;DHT22;9807;48.258;12.690;2023-02-22T09:36:47;10.50;99.90
19342;DHT22;9807;48.258;12.690;2023-02-22T09:39:19;10.70;99.90
19342;DHT22;9807;48.258;12.690;2023-02-22T09:45:05;11.00;99.90
19342;DHT22;9807;48.258;12.690;2023-02-22T09:47:44;11.00;99.90
19342;DHT22;9807;48.258;12.690;2023-02-22T09:50:20;11.00;99.90
19342;DHT22;9807;48.258;12.690;2023-02-22T09:53:06;11.10;99.90
19342;DHT22;9807;48.258;12.690;2023-02-22T09:55:45;11.10;99.90
19342;DHT22;9807;48.258;12.690;2023-02-22T09:58:37;11.20;99.90
19342;DHT22;9807;48.258;12.690;2023-02-22T10:01:25;11.40;99.90
19342;DHT22;9807;48.258;12.690;2023-02-22T10:09:23;11.10;99.90
19342;DHT22;9807;48.258;12.690;2023-02-22T10:11:57;11.00;99.90
19342;DHT22;9807;48.258;12.690;2023-02-22T10:25:30;11.80;99.90
19342;DHT22;9807;48.258;12.690;2023-02-22T10:30:34;12.00;99.90
19342;DHT22;9807;48.258;12.690;2023-02-22T10:33:20;12.00;99.90
19342;DHT22;9807;48.258;12.690;2023-02-22T10:35:47;12.10;99.90
19342;DHT22;9807;48.258;12.690;2023-02-22T10:38:19;12.10;99.90
19342;DHT22;9807;48.258;12.690;2023-02-22T10:43:33;12.20;99.90
19342;DHT22;9807;48.258;12.690;2023-02-22T10:46:02;12.30;99.90
19342;DHT22;9807;48.258;12.690;2023-02-22T10:48:30;12.40;99.90
19342;DHT22;9807;48.258;12.690;2023-02-22T10:51:02;12.40;99.90
19342;DHT22;9807;48.258;12.690;2023-02-22T10:53:29;12.30;99.90
19342;DHT22;9807;48.258;12.690;2023-02-22T10:56:19;12.30;99.90
19342;DHT22;9807;48.258;12.690;2023-02-22T10:58:53;12.30;99.90
19342;DHT22;9807;48.258;12.690;2023-02-22T11:01:20;12.40;99.90
19342;DHT22;9807;48.258;12.690;2023-02-22T11:04:10;12.50;99.90
19342;DHT22;9807;48.258;12.690;2023-02-22T11:06:37;12.50;99.90
19342;DHT22;9807;48.258;12.690;2023-02-22T11:09:15;12.60;99.90
19342;DHT22;9807;48.258;12.690;2023-02-22T11:11:45;12.50;99.90
19342;DHT22;9807;48.258;12.690;2023-02-22T11:14:23;12.60;99.90
19342;DHT22;9807;48.258;12.690;2023-02-22T11:16:56;12.70;99.90
19342;DHT22;9807;48.258;12.690;2023-02-22T11:19:29;12.80;99.90
19342;DHT22;9807;48.258;12.690;2023-02-22T11:22:19;12.90;99.90
19342;DHT22;9807;48.258;12.690;2023-02-22T11:25:00;13.00;99.90
19342;DHT22;9807;48.258;12.690;2023-02-22T11:27:42;12.90;99.90
19342;DHT22;9807;48.258;12.690;2023-02-22T11:32:55;13.10;99.90
19342;DHT22;9807;48.258;12.690;2023-02-22T11:37:50;13.30;99.90
19342;DHT22;9807;48.258;12.690;2023-02-22T11:40:19;13.30;99.90
19342;DHT22;9807;48.258;12.690;2023-02-22T11:42:48;13.40;99.90
19342;DHT22;9807;48.258;12.690;2023-02-22T11:45:18;13.40;99.90
19342;DHT22;9807;48.258;12.690;2023-02-22T11:47:54;13.40;99.90
19342;DHT22;9807;48.258;12.690;2023-02-22T11:50:27;13.40;99.90
19342;DHT22;9807;48.258;12.690;2023-02-22T11:53:15;13.40;99.90
19342;DHT22;9807;48.258;12.690;2023-02-22T12:04:08;13.60;99.90
19342;DHT22;9807;48.258;12.690;2023-02-22T12:09:38;13.70;99.90
19342;DHT22;9807;48.258;12.690;2023-02-22T12:20:54;13.90;99.90
19342;DHT22;9807;48.258;12.690;2023-02-22T12:23:45;13.90;99.90
19342;DHT22;9807;48.258;12.690;2023-02-22T12:26:38;13.90;99.90
19342;DHT22;9807;48.258;12.690;2023-02-22T12:31:55;14.00;99.90
19342;DHT22;9807;48.258;12.690;2023-02-22T12:34:32;14.10;99.90
19342;DHT22;9807;48.258;12.690;2023-02-22T12:48:18;14.30;99.90
19342;DHT22;9807;48.258;12.690;2023-02-22T12:50:54;14.30;99.90
19342;DHT22;9807;48.258;12.690;2023-02-22T12:53:35;14.40;99.90
19342;DHT22;9807;48.258;12.690;2023-02-22T12:59:08;14.50;99.90
19342;DHT22;9807;48.258;12.690;2023-02-22T13:01:40;14.50;99.90
19342;DHT22;9807;48.258;12.690;2023-02-22T13:04:08;14.50;99.90
19342;DHT22;9807;48.258;12.690;2023-02-22T13:09:33;14.60;99.90
19342;DHT22;9807;48.258;12.690;2023-02-22T13:12:17;14.70;99.90
19342;DHT22;9807;48.258;12.690;2023-02-22T13:20:33;14.90;99.90
19342;DHT22;9807;48.258;12.690;2023-02-22T13:23:29;14.90;99.90
19342;DHT22;9807;48.258;12.690;2023-02-22T13:26:00;14.90;99.90
19342;DHT22;9807;48.258;12.690;2023-02-22T13:28:40;14.80;99.90
19342;DHT22;9807;48.258;12.690;2023-02-22T13:42:34;14.90;99.90
19342;DHT22;9807;48.258;12.690;2023-02-22T13:50:32;15.00;99.90
19342;DHT22;9807;48.258;12.690;2023-02-22T13:53:11;15.00;99.90
19342;DHT22;9807;48.258;12.690;2023-02-22T13:55:40;15.00;99.90
19342;DHT22;9807;48.258;12.690;2023-02-22T13:58:09;15.10;99.90
19342;DHT22;9807;48.258;12.690;2023-02-22T14:10:54;15.50;99.90
19342;DHT22;9807;48.258;12.690;2023-02-22T14:13:22;15.40;99.90
19342;DHT22;9807;48.258;12.690;2023-02-22T14:18:44;15.50;99.90
19342;DHT22;9807;48.258;12.690;2023-02-22T14:21:16;15.50;99.90
19342;DHT22;9807;48.258;12.690;2023-02-22T14:23:53;15.60;99.90
19342;DHT22;9807;48.258;12.690;2023-02-22T14:34:21;15.70;99.90
19342;DHT22;9807;48.258;12.690;2023-02-22T14:40:04;15.60;99.90
19342;DHT22;9807;48.258;12.690;2023-02-22T14:43:02;15.70;99.90
19342;DHT22;9807;48.258;12.690;2023-02-22T14:45:29;15.60;99.90
19342;DHT22;9807;48.258;12.690;2023-02-22T14:53:40;15.60;99.90
19342;DHT22;9807;48.258;12.690;2023-02-22T14:56:15;15.70;99.90
19342;DHT22;9807;48.258;12.690;2023-02-22T15:01:20;15.60;99.90
19342;DHT22;9807;48.258;12.690;2023-02-22T15:03:47;15.60;99.90
19342;DHT22;9807;48.258;12.690;2023-02-22T15:06:15;15.50;99.90
19342;DHT22;9807;48.258;12.690;2023-02-22T15:08:42;15.50;99.90
19342;DHT22;9807;48.258;12.690;2023-02-22T15:11:24;15.50;99.90
19342;DHT22;9807;48.258;12.690;2023-02-22T15:13:53;15.50;99.90
19342;DHT22;9807;48.258;12.690;2023-02-22T15:16:20;15.50;99.90
19342;DHT22;9807;48.258;12.690;2023-02-22T15:18:51;15.50;99.90
19342;DHT22;9807;48.258;12.690;2023-02-22T15:21:23;15.50;99.90
19342;DHT22;9807;48.258;12.690;2023-02-22T15:23:55;15.50;99.90
19342;DHT22;9807;48.258;12.690;2023-02-22T15:26:34;15.60;99.90
19342;DHT22;9807;48.258;12.690;2023-02-22T15:29:24;15.50;99.90
19342;DHT22;9807;48.258;12.690;2023-02-22T15:31:53;15.50;99.90
19342;DHT22;9807;48.258;12.690;2023-02-22T15:34:27;15.40;99.90
19342;DHT22;9807;48.258;12.690;2023-02-22T15:39:39;15.40;99.90
19342;DHT22;9807;48.258;12.690;2023-02-22T15:42:09;15.50;99.90
19342;DHT22;9807;48.258;12.690;2023-02-22T15:44:44;15.50;99.90
19342;DHT22;9807;48.258;12.690;2023-02-22T15:47:31;15.60;99.90
19342;DHT22;9807;48.258;12.690;2023-02-22T15:50:29;15.60;99.90
19342;DHT22;9807;48.258;12.690;2023-02-22T15:52:58;15.60;99.90
19342;DHT22;9807;48.258;12.690;2023-02-22T15:55:27;15.50;99.90
19342;DHT22;9807;48.258;12.690;2023-02-22T15:57:55;15.50;99.90
19342;DHT22;9807;48.258;12.690;2023-02-22T16:00:30;15.50;99.90
19342;DHT22;9807;48.258;12.690;2023-02-22T16:03:11;15.40;99.90
19342;DHT22;9807;48.258;12.690;2023-02-22T16:05:39;15.50;99.90
19342;DHT22;9807;48.258;12.690;2023-02-22T16:10:51;15.40;99.90
19342;DHT22;9807;48.258;12.690;2023-02-22T16:13:24;15.40;99.90
19342;DHT22;9807;48.258;12.690;2023-02-22T16:16:00;15.30;99.90
19342;DHT22;9807;48.258;12.690;2023-02-22T16:23:27;15.10;99.90
19342;DHT22;9807;48.258;12.690;2023-02-22T16:26:05;15.10;99.90
19342;DHT22;9807;48.258;12.690;2023-02-22T16:28:31;15.10;99.90
19342;DHT22;9807;48.258;12.690;2023-02-22T16:31:01;15.00;99.90
19342;DHT22;9807;48.258;12.690;2023-02-22T16:33:27;15.10;99.90
19342;DHT22;9807;48.258;12.690;2023-02-22T16:36:01;15.00;99.90
19342;DHT22;9807;48.258;12.690;2023-02-22T16:38:30;15.00;99.90
19342;DHT22;9807;48.258;12.690;2023-02-22T16:40:58;15.00;99.90
19342;DHT22;9807;48.258;12.690;2023-02-22T16:43:29;15.00;99.90
19342;DHT22;9807;48.258;12.690;2023-02-22T16:45:57;14.90;99.90
19342;DHT22;9807;48.258;12.690;2023-02-22T16:48:27;14.90;99.90
19342;DHT22;9807;48.258;12.690;2023-02-22T16:50:57;14.90;99.90
19342;DHT22;9807;48.258;12.690;2023-02-22T16:53:25;14.80;99.90
19342;DHT22;9807;48.258;12.690;2023-02-22T16:55:54;14.80;99.90
19342;DHT22;9807;48.258;12.690;2023-02-22T16:58:25;14.80;99.90
19342;DHT22;9807;48.258;12.690;2023-02-22T17:00:55;14.80;99.90
19342;DHT22;9807;48.258;12.690;2023-02-22T17:03:23;14.70;99.90
19342;DHT22;9807;48.258;12.690;2023-02-22T17:05:49;14.70;99.90
19342;DHT22;9807;48.258;12.690;2023-02-22T17:08:15;14.70;99.90
19342;DHT22;9807;48.258;12.690;2023-02-22T17:10:42;14.60;99.90
19342;DHT22;9807;48.258;12.690;2023-02-22T17:13:07;14.60;99.90
19342;DHT22;9807;48.258;12.690;2023-02-22T17:15:35;14.50;99.90
19342;DHT22;9807;48.258;12.690;2023-02-22T17:18:05;14.50;99.90
19342;DHT22;9807;48.258;12.690;2023-02-22T17:20:35;14.50;99.90
19342;DHT22;9807;48.258;12.690;2023-02-22T17:23:05;14.40;99.90
19342;DHT22;9807;48.258;12.690;2023-02-22T17:25:44;14.40;99.90
19342;DHT22;9807;48.258;12.690;2023-02-22T17:28:12;14.30;99.90
19342;DHT22;9807;48.258;12.690;2023-02-22T17:30:38;14.30;99.90
19342;DHT22;9807;48.258;12.690;2023-02-22T17:33:06;14.20;99.90
19342;DHT22;9807;48.258;12.690;2023-02-22T17:35:38;14.10;99.90
19342;DHT22;9807;48.258;12.690;2023-02-22T17:38:13;14.00;99.90
19342;DHT22;9807;48.258;12.690;2023-02-22T17:40:44;13.90;99.90
19342;DHT22;9807;48.258;12.690;2023-02-22T17:43:13;13.80;99.90
19342;DHT22;9807;48.258;12.690;2023-02-22T17:45:40;13.70;99.90
19342;DHT22;9807;48.258;12.690;2023-02-22T17:48:07;13.70;99.90
19342;DHT22;9807;48.258;12.690;2023-02-22T17:50:36;13.60;99.90
19342;DHT22;9807;48.258;12.690;2023-02-22T17:53:03;13.60;99.90
19342;DHT22;9807;48.258;12.690;2023-02-22T17:55:29;13.70;99.90
19342;DHT22;9807;48.258;12.690;2023-02-22T17:57:56;13.70;99.90
19342;DHT22;9807;48.258;12.690;2023-02-22T18:00:27;13.60;99.90
19342;DHT22;9807;48.258;12.690;2023-02-22T18:03:05;13.50;99.90
19342;DHT22;9807;48.258;12.690;2023-02-22T18:05:32;13.40;99.90
19342;DHT22;9807;48.258;12.690;2023-02-22T18:07:58;13.30;99.90
19342;DHT22;9807;48.258;12.690;2023-02-22T18:10:25;13.30;99.90
19342;DHT22;9807;48.258;12.690;2023-02-22T18:12:57;13.20;99.90
19342;DHT22;9807;48.258;12.690;2023-02-22T18:15:29;13.10;99.90
19342;DHT22;9807;48.258;12.690;2023-02-22T18:18:02;13.00;99.90
19342;DHT22;9807;48.258;12.690;2023-02-22T18:20:30;12.80;99.90
19342;DHT22;9807;48.258;12.690;2023-02-22T18:23:06;12.70;99.90
19342;DHT22;9807;48.258;12.690;2023-02-22T18:25:34;12.80;99.90
19342;DHT22;9807;48.258;12.690;2023-02-22T18:28:04;12.90;99.90
19342;DHT22;9807;48.258;12.690;2023-02-22T18:30:31;12.80;99.90
19342;DHT22;9807;48.258;12.690;2023-02-22T18:32:57;12.80;99.90
19342;DHT22;9807;48.258;12.690;2023-02-22T18:35:22;12.80;99.90
19342;DHT22;9807;48.258;12.690;2023-02-22T18:37:51;12.80;99.90
19342;DHT22;9807;48.258;12.690;2023-02-22T18:40:16;12.90;99.90
19342;DHT22;9807;48.258;12.690;2023-02-22T18:42:44;12.90;99.90
19342;DHT22;9807;48.258;12.690;2023-02-22T18:45:09;12.90;99.90
19342;DHT22;9807;48.258;12.690;2023-02-22T18:47:44;12.90;99.90
19342;DHT22;9807;48.258;12.690;2023-02-22T18:50:14;12.90;99.90